Time;durP1;ratioP1;P1;durP2;ratioP2;P2;SDS_P1;SDS_P2;PMS_P1;PMS_P2;Temp;Humidity;BMP_temperature;BMP_pressure;BME280_temperature;BME280_humidity;BME280_pressure;Samples;Min_cycle;Max_cycle;Signal;HPM_P1;HPM_P2
2021/10/13 00:05:10;;;;;;;7.30;2.30;;;7.40;99.90;;;;;;12479350;28;20410;-84
2021/10/13 00:11:12;;;;;;;7.90;2.20;;;7.40;99.90;;;;;;12470980;28;20041;-85
2021/10/13 00:17:14;;;;;;;5.85;1.92;;;7.50;99.90;;;;;;12473257;28;20851;-84
2021/10/13 00:23:16;;;;;;;4.75;2.22;;;7.40;99.90;;;;;;12476788;28;20053;-84
2021/10/13 00:29:18;;;;;;;6.28;2.28;;;7.40;99.90;;;;;;12475426;28;20417;-85
2021/10/13 00:35:20;;;;;;;5.95;2.30;;;7.40;99.90;;;;;;12468560;28;20491;-83
2021/10/13 00:41:22;;;;;;;5.85;2.85;;;7.50;99.90;;;;;;12470447;28;20433;-85
2021/10/13 00:47:24;;;;;;;6.35;2.22;;;7.40;99.90;;;;;;12477583;28;20067;-84
2021/10/13 00:53:27;;;;;;;6.40;2.20;;;7.40;99.90;;;;;;12483035;28;20637;-85
2021/10/13 00:59:28;;;;;;;7.80;2.60;;;7.30;99.90;;;;;;12479358;28;20404;-84
2021/10/13 01:05:51;;;;;;;6.07;2.38;;;7.20;99.90;;;;;;12483154;28;20049;-84
2021/10/13 01:12:11;;;;;;;5.18;2.08;;;7.20;99.90;;;;;;12491636;28;20061;-85
2021/10/13 01:18:24;;;;;;;8.27;2.88;;;7.30;99.90;;;;;;12478555;28;20106;-85
2021/10/13 01:25:02;;;;;;;8.05;2.97;;;7.10;99.90;;;;;;12473238;28;20053;-85
2021/10/13 01:31:19;;;;;;;8.50;3.15;;;7.10;99.90;;;;;;12464485;28;20192;-85
2021/10/13 01:37:29;;;;;;;6.85;2.50;;;7.20;99.90;;;;;;12488867;28;20053;-85
2021/10/13 01:43:37;;;;;;;5.75;2.58;;;7.20;99.90;;;;;;12473512;28;20541;-84
2021/10/13 01:49:39;;;;;;;11.60;3.33;;;7.10;99.90;;;;;;12476110;28;20142;-85
2021/10/13 01:55:42;;;;;;;5.93;2.50;;;7.10;99.90;;;;;;12485415;28;20049;-84
2021/10/13 02:01:46;;;;;;;6.47;3.00;;;7.10;99.90;;;;;;12486265;28;20131;-85
2021/10/13 02:07:49;;;;;;;9.80;3.30;;;7.20;99.90;;;;;;12484465;28;20045;-84
2021/10/13 02:13:51;;;;;;;7.20;3.08;;;7.00;99.90;;;;;;12491455;28;20337;-84
2021/10/13 02:19:55;;;;;;;9.20;4.60;;;6.90;99.90;;;;;;12493084;28;20492;-84
2021/10/13 02:26:01;;;;;;;7.75;3.67;;;6.90;99.90;;;;;;12483418;28;20048;-85
2021/10/13 02:32:04;;;;;;;12.18;4.45;;;7.00;99.90;;;;;;12477371;28;20136;-84
2021/10/13 02:38:05;;;;;;;10.20;5.20;;;7.10;99.90;;;;;;12478529;28;20187;-84
2021/10/13 02:44:08;;;;;;;14.07;5.68;;;7.00;99.90;;;;;;12484622;28;20769;-85
2021/10/13 02:50:36;;;;;;;26.30;6.60;;;6.90;99.90;;;;;;12476473;28;20685;-84
2021/10/13 02:56:43;;;;;;;14.10;6.22;;;6.90;99.90;;;;;;12486834;28;20148;-85
2021/10/13 03:03:02;;;;;;;9.05;5.40;;;6.90;99.90;;;;;;12482680;28;20095;-84
2021/10/13 03:09:06;;;;;;;12.02;6.57;;;6.90;99.90;;;;;;12494158;28;20053;-84
2021/10/13 03:15:10;;;;;;;8.07;5.68;;;6.90;99.90;;;;;;12500494;28;20837;-84
2021/10/13 03:21:13;;;;;;;8.63;5.30;;;6.90;99.90;;;;;;12483916;28;20044;-84
2021/10/13 03:27:15;;;;;;;6.32;4.53;;;6.90;99.90;;;;;;12484144;28;20136;-84
2021/10/13 03:33:17;;;;;;;8.65;4.90;;;6.80;99.90;;;;;;12482468;28;20041;-84
2021/10/13 03:39:19;;;;;;;8.23;5.43;;;6.80;99.90;;;;;;12490432;28;20164;-85
2021/10/13 03:45:22;;;;;;;11.38;4.97;;;6.80;99.90;;;;;;12473863;28;20098;-84
2021/10/13 03:51:24;;;;;;;7.97;4.95;;;6.90;99.90;;;;;;12495336;28;20573;-85
2021/10/13 03:57:26;;;;;;;6.22;4.55;;;6.90;99.90;;;;;;12480211;28;20057;-84
2021/10/13 04:03:28;;;;;;;9.45;5.03;;;6.80;99.90;;;;;;12491687;28;20479;-84
2021/10/13 04:09:29;;;;;;;17.23;5.70;;;6.70;99.90;;;;;;12480244;28;20076;-85
2021/10/13 04:15:31;;;;;;;25.33;6.70;;;6.70;99.90;;;;;;12480600;28;20077;-84
2021/10/13 04:21:33;;;;;;;26.95;7.97;;;6.70;99.90;;;;;;12491479;28;20049;-84
2021/10/13 04:27:35;;;;;;;63.35;8.57;;;6.60;99.90;;;;;;12475011;28;20446;-84
2021/10/13 04:33:37;;;;;;;40.70;9.05;;;6.50;99.90;;;;;;12489962;28;20456;-85
2021/10/13 04:39:39;;;;;;;29.63;9.35;;;6.60;99.90;;;;;;12481148;28;20437;-83
2021/10/13 04:45:40;;;;;;;23.10;8.80;;;6.60;99.90;;;;;;12464875;28;20313;-84
2021/10/13 04:51:42;;;;;;;17.58;9.77;;;6.60;99.90;;;;;;12470287;28;20094;-84
2021/10/13 04:57:45;;;;;;;19.17;10.82;;;6.60;99.90;;;;;;12477692;28;20048;-85
2021/10/13 05:03:47;;;;;;;16.92;10.52;;;6.60;99.90;;;;;;12482701;28;20049;-83
2021/10/13 05:09:48;;;;;;;18.27;11.48;;;6.70;99.90;;;;;;12486936;28;20058;-84
2021/10/13 05:15:51;;;;;;;23.27;11.77;;;6.80;99.90;;;;;;12473712;28;20063;-84
2021/10/13 05:21:53;;;;;;;20.17;11.38;;;6.80;99.90;;;;;;12480073;28;20057;-84
2021/10/13 05:27:55;;;;;;;18.25;10.15;;;6.90;99.90;;;;;;12481302;28;20068;-84
2021/10/13 05:33:57;;;;;;;16.70;9.40;;;7.00;99.90;;;;;;12486690;28;20539;-84
2021/10/13 05:39:58;;;;;;;15.95;8.25;;;7.00;99.90;;;;;;12489828;28;20168;-84
2021/10/13 05:46:00;;;;;;;13.80;8.23;;;7.10;99.90;;;;;;12481358;28;20096;-84
2021/10/13 05:52:02;;;;;;;14.02;7.60;;;7.10;99.90;;;;;;12486211;28;20342;-85
2021/10/13 05:58:05;;;;;;;11.10;7.25;;;7.20;99.90;;;;;;12491196;28;20053;-85
2021/10/13 06:04:07;;;;;;;10.88;5.90;;;7.10;99.90;;;;;;12483802;28;20136;-85
2021/10/13 06:10:09;;;;;;;10.98;6.13;;;7.00;99.90;;;;;;12477999;28;20087;-84
2021/10/13 06:16:12;;;;;;;9.98;6.10;;;7.00;99.90;;;;;;12484961;28;20481;-85
2021/10/13 06:22:14;;;;;;;12.35;6.28;;;6.90;99.90;;;;;;12492550;28;20053;-85
2021/10/13 06:28:16;;;;;;;11.43;6.35;;;7.10;99.90;;;;;;12483633;28;20128;-84
2021/10/13 06:34:18;;;;;;;14.32;7.53;;;6.80;99.90;;;;;;12485140;28;20846;-84
2021/10/13 06:40:20;;;;;;;11.88;7.00;;;6.90;99.90;;;;;;12493228;28;20153;-84
2021/10/13 06:46:21;;;;;;;12.00;7.32;;;6.90;99.90;;;;;;12485540;28;20057;-84
2021/10/13 06:52:23;;;;;;;10.27;7.22;;;6.90;99.90;;;;;;12487964;28;20622;-85
2021/10/13 06:58:25;;;;;;;11.15;6.93;;;7.00;99.90;;;;;;12492106;28;20053;-84
2021/10/13 07:04:27;;;;;;;11.50;7.28;;;6.90;99.90;;;;;;12489697;28;20122;-85
2021/10/13 07:10:29;;;;;;;11.68;7.28;;;7.00;99.90;;;;;;12488082;28;20675;-84
2021/10/13 07:16:31;;;;;;;11.35;7.43;;;6.90;99.90;;;;;;12488516;28;20088;-85
2021/10/13 07:22:33;;;;;;;10.02;6.72;;;6.90;99.90;;;;;;12483794;28;20520;-84
2021/10/13 07:28:40;;;;;;;10.85;7.25;;;6.90;99.90;;;;;;12494949;28;20045;-84
2021/10/13 07:34:42;;;;;;;10.30;7.13;;;7.10;99.90;;;;;;12481699;28;20449;-84
2021/10/13 07:40:45;;;;;;;15.63;8.65;;;7.10;99.90;;;;;;12477457;28;20639;-84
2021/10/13 07:46:47;;;;;;;22.73;12.25;;;7.10;99.90;;;;;;12478277;28;20132;-85
2021/10/13 07:52:51;;;;;;;;;;;7.20;99.90;;;;;;12470394;28;20484;-84
2021/10/13 07:58:53;;;;;;;16.15;10.30;;;7.30;99.90;;;;;;12477986;28;19974;-84
2021/10/13 08:04:55;;;;;;;11.45;7.30;;;7.40;99.90;;;;;;12480797;28;20053;-84
2021/10/13 08:10:57;;;;;;;13.32;7.35;;;7.50;99.90;;;;;;12486432;28;20037;-84
2021/10/13 08:17:01;;;;;;;13.23;7.55;;;7.50;99.90;;;;;;12489096;28;20049;-85
2021/10/13 08:23:03;;;;;;;13.50;7.80;;;7.50;99.90;;;;;;12496933;28;20049;-85
2021/10/13 08:29:04;;;;;;;15.02;8.80;;;7.70;99.90;;;;;;12480982;28;20045;-84
2021/10/13 08:35:08;;;;;;;14.57;8.68;;;7.80;99.90;;;;;;12473848;28;20143;-84
2021/10/13 08:41:10;;;;;;;12.70;7.90;;;8.10;99.90;;;;;;12478664;28;20049;-85
2021/10/13 08:47:12;;;;;;;14.68;8.75;;;8.20;99.90;;;;;;12477809;28;20098;-85
2021/10/13 08:53:17;;;;;;;16.35;9.20;;;8.40;99.90;;;;;;12490111;28;20045;-85
2021/10/13 08:59:39;;;;;;;11.57;7.93;;;8.50;99.90;;;;;;12473809;28;20960;-86
2021/10/13 09:05:43;;;;;;;12.18;7.75;;;8.60;99.90;;;;;;12470500;28;20413;-86
2021/10/13 09:11:49;;;;;;;13.82;7.70;;;8.60;99.90;;;;;;12481828;28;20127;-85
2021/10/13 09:18:03;;;;;;;11.90;7.35;;;8.80;99.90;;;;;;12492699;28;20099;-85
2021/10/13 09:24:09;;;;;;;10.35;6.93;;;9.20;99.90;;;;;;12470486;28;20091;-86
2021/10/13 09:30:11;;;;;;;9.88;6.30;;;9.40;99.90;;;;;;12480779;28;20053;-87
2021/10/13 09:36:13;;;;;;;13.00;5.70;;;9.50;99.90;;;;;;12475172;28;20106;-86
2021/10/13 09:42:16;;;;;;;8.90;5.22;;;9.50;99.90;;;;;;13136476;22;20144;-86
2021/10/13 09:48:22;;;;;;;11.40;5.20;;;9.70;99.90;;;;;;12431735;28;20050;-85
2021/10/13 09:54:25;;;;;;;12.75;5.00;;;9.80;99.90;;;;;;12435695;28;20156;-85
2021/10/13 10:00:28;;;;;;;11.27;4.93;;;10.00;99.90;;;;;;12446499;28;20045;-85
2021/10/13 10:06:31;;;;;;;9.10;3.88;;;10.00;99.90;;;;;;12442432;28;20049;-84
2021/10/13 10:12:54;;;;;;;10.52;4.18;;;10.20;99.90;;;;;;12444139;28;20046;-85
2021/10/13 10:19:21;;;;;;;10.43;3.83;;;10.50;99.90;;;;;;12469566;28;20053;-86
2021/10/13 10:25:34;;;;;;;9.10;3.90;;;10.50;99.90;;;;;;12462243;28;20460;-84
2021/10/13 10:31:38;;;;;;;9.90;3.65;;;10.70;99.90;;;;;;12451104;28;20099;-86
2021/10/13 10:37:46;;;;;;;5.88;3.22;;;10.80;99.90;;;;;;12462990;28;20061;-85
2021/10/13 10:43:48;;;;;;;7.55;3.33;;;10.90;99.90;;;;;;12453330;28;20068;-86
2021/10/13 10:49:56;;;;;;;6.10;2.58;;;11.00;99.90;;;;;;12429925;28;20048;-86
2021/10/13 10:56:17;;;;;;;8.65;2.83;;;11.10;99.90;;;;;;12441107;28;20532;-85
2021/10/13 11:02:22;;;;;;;8.35;2.60;;;11.10;99.90;;;;;;12451472;28;20649;-88
2021/10/13 11:08:24;;;;;;;11.20;2.85;;;11.00;99.90;;;;;;12451059;28;20045;-84
2021/10/13 11:14:27;;;;;;;7.40;2.50;;;11.20;99.90;;;;;;12459279;28;20076;-85
2021/10/13 11:20:29;;;;;;;7.90;1.98;;;11.50;99.90;;;;;;12434437;28;21582;-86
2021/10/13 11:26:31;;;;;;;10.57;2.40;;;11.40;99.90;;;;;;12442754;28;20045;-86
2021/10/13 11:32:40;;;;;;;5.78;1.63;;;11.70;99.90;;;;;;12437204;28;20580;-85
2021/10/13 11:38:42;;;;;;;8.05;1.80;;;11.80;99.90;;;;;;12439750;28;20049;-86
2021/10/13 11:44:52;;;;;;;5.18;1.52;;;11.70;99.90;;;;;;12433695;28;20111;-86
2021/10/13 11:50:55;;;;;;;7.00;1.58;;;12.40;99.90;;;;;;12432587;28;20042;-86
2021/10/13 11:56:58;;;;;;;6.13;1.50;;;12.80;99.90;;;;;;12430923;28;20154;-85
2021/10/13 12:03:09;;;;;;;6.78;1.40;;;12.60;99.90;;;;;;12444402;28;20076;-86
2021/10/13 12:09:12;;;;;;;7.10;1.38;;;12.20;99.90;;;;;;12432196;28;20124;-85
2021/10/13 12:15:21;;;;;;;14.15;1.70;;;11.80;99.90;;;;;;12428031;28;20045;-86
2021/10/13 12:21:24;;;;;;;5.60;1.25;;;11.90;99.90;;;;;;12452228;28;20049;-86
2021/10/13 12:27:29;;;;;;;4.80;0.90;;;11.80;99.90;;;;;;12451241;28;20132;-86
2021/10/13 12:33:44;;;;;;;;;;;11.80;99.90;;;;;;12446954;28;20386;-85
2021/10/13 12:39:46;;;;;;;2.95;0.75;;;11.60;99.90;;;;;;12452430;28;20373;-85
2021/10/13 12:45:49;;;;;;;7.53;1.05;;;11.20;99.90;;;;;;12401120;28;20138;-86
2021/10/13 12:52:00;;;;;;;3.25;0.90;;;10.80;99.90;;;;;;12408137;28;20042;-84
2021/10/13 12:58:02;;;;;;;3.05;0.80;;;11.00;99.90;;;;;;12402020;28;20083;-85
2021/10/13 13:04:03;;;;;;;4.05;0.95;;;11.60;99.90;;;;;;12393755;28;20476;-86
2021/10/13 13:10:05;;;;;;;4.20;1.20;;;12.10;99.90;;;;;;12400017;28;20054;-86
2021/10/13 13:16:07;;;;;;;4.60;0.95;;;12.10;99.90;;;;;;12406926;28;20046;-85
2021/10/13 13:22:10;;;;;;;2.25;0.93;;;12.00;99.90;;;;;;12397651;28;20096;-85
2021/10/13 13:28:14;;;;;;;;;;;12.20;99.90;;;;;;12397042;28;20505;-85
2021/10/13 13:34:16;;;;;;;7.00;1.20;;;12.30;99.90;;;;;;12389542;28;19953;-86
2021/10/13 13:40:18;;;;;;;5.50;1.00;;;12.60;99.90;;;;;;12398974;28;20102;-86
2021/10/13 13:46:20;;;;;;;4.38;0.90;;;12.70;99.90;;;;;;12392040;28;20071;-85
2021/10/13 13:52:22;;;;;;;5.95;0.70;;;12.70;99.90;;;;;;12408186;28;20069;-85
2021/10/13 13:58:24;;;;;;;5.15;0.70;;;12.40;99.90;;;;;;12411800;28;20133;-86
2021/10/13 14:04:26;;;;;;;6.43;1.20;;;12.30;99.90;;;;;;12407353;28;20589;-85
2021/10/13 14:10:27;;;;;;;3.13;0.95;;;12.10;99.90;;;;;;12417464;28;20048;-85
2021/10/13 14:16:29;;;;;;;3.15;0.77;;;12.10;99.90;;;;;;12411704;28;20802;-85
2021/10/13 14:22:31;;;;;;;4.20;0.90;;;12.10;99.90;;;;;;12411393;28;20049;-86
2021/10/13 14:28:34;;;;;;;2.55;0.88;;;12.00;99.90;;;;;;12407173;28;20112;-86
2021/10/13 14:34:37;;;;;;;6.88;0.88;;;11.80;99.90;;;;;;12408425;28;20073;-87
2021/10/13 14:40:39;;;;;;;3.67;1.00;;;11.70;99.90;;;;;;12411112;28;20049;-86
2021/10/13 14:46:41;;;;;;;4.93;1.00;;;11.80;99.90;;;;;;12388636;28;20065;-85
2021/10/13 14:52:43;;;;;;;9.35;2.22;;;11.70;99.90;;;;;;12382720;28;20081;-86
2021/10/13 14:58:45;;;;;;;6.78;1.15;;;11.60;99.90;;;;;;12372775;28;20594;-85
2021/10/13 15:04:47;;;;;;;5.95;1.30;;;11.60;99.90;;;;;;12370864;28;20134;-85
2021/10/13 15:10:49;;;;;;;6.47;1.70;;;11.60;99.90;;;;;;12377477;28;20038;-86
2021/10/13 15:16:51;;;;;;;2.42;0.90;;;11.50;99.90;;;;;;12367430;28;20160;-85
2021/10/13 15:22:58;;;;;;;3.28;1.00;;;11.50;99.90;;;;;;12371717;28;20054;-87
2021/10/13 15:29:00;;;;;;;4.70;1.30;;;11.40;99.90;;;;;;12364139;28;20081;-85
2021/10/13 15:35:02;;;;;;;2.40;0.85;;;11.30;99.90;;;;;;12385620;28;20054;-85
2021/10/13 15:41:07;;;;;;;4.18;0.93;;;11.30;99.90;;;;;;12377294;28;20061;-85
2021/10/13 15:47:09;;;;;;;5.47;1.00;;;11.30;99.90;;;;;;12404234;28;20057;-85
2021/10/13 15:53:12;;;;;;;2.20;0.70;;;11.10;99.90;;;;;;12402333;28;20038;-84
2021/10/13 15:59:15;;;;;;;2.57;0.60;;;11.00;99.90;;;;;;12410978;28;20053;-85
2021/10/13 16:05:17;;;;;;;5.35;0.77;;;11.00;99.90;;;;;;12394494;28;20161;-85
2021/10/13 16:11:19;;;;;;;6.20;0.90;;;10.90;99.90;;;;;;12396223;28;20049;-85
2021/10/13 16:17:21;;;;;;;5.68;0.73;;;10.90;99.90;;;;;;12407866;28;20117;-85
2021/10/13 16:23:23;;;;;;;4.80;0.90;;;10.80;99.90;;;;;;12417637;28;20050;-86
2021/10/13 16:29:25;;;;;;;4.10;1.10;;;10.60;99.90;;;;;;12405865;28;20485;-85
2021/10/13 16:35:27;;;;;;;2.38;0.93;;;10.70;99.90;;;;;;12408765;28;20543;-86
2021/10/13 16:41:29;;;;;;;4.25;0.80;;;10.60;99.90;;;;;;12405509;28;20061;-87
2021/10/13 16:47:31;;;;;;;7.32;1.08;;;10.50;99.90;;;;;;12439401;28;20122;-85
2021/10/13 16:53:33;;;;;;;3.72;1.17;;;10.40;99.90;;;;;;12441269;28;20136;-85
2021/10/13 16:59:35;;;;;;;6.13;1.20;;;10.50;99.90;;;;;;12421984;28;20045;-87
2021/10/13 17:05:37;;;;;;;3.33;1.30;;;10.40;99.90;;;;;;12430812;28;20689;-88
2021/10/13 17:11:41;;;;;;;4.10;1.65;;;10.40;99.90;;;;;;12433922;28;20068;-87
2021/10/13 17:17:43;;;;;;;3.83;1.60;;;10.30;99.90;;;;;;12435800;28;20068;-88
2021/10/13 17:23:45;;;;;;;4.95;1.67;;;10.30;99.90;;;;;;12443486;28;20049;-86
2021/10/13 17:29:47;;;;;;;5.90;1.92;;;10.30;99.90;;;;;;12449445;28;20072;-85
2021/10/13 17:35:49;;;;;;;4.13;1.60;;;10.20;99.90;;;;;;12467198;28;20080;-88
2021/10/13 17:41:51;;;;;;;2.53;1.67;;;10.20;99.90;;;;;;12448725;28;20064;-86
2021/10/13 17:47:53;;;;;;;3.50;1.60;;;10.10;99.90;;;;;;12454666;28;20098;-87
2021/10/13 17:53:55;;;;;;;6.88;2.30;;;10.20;99.90;;;;;;12440065;28;20037;-86
2021/10/13 17:59:57;;;;;;;4.05;1.90;;;10.10;99.90;;;;;;12458514;28;20476;-86
2021/10/13 18:05:59;;;;;;;3.83;1.73;;;10.10;99.90;;;;;;12442170;28;20052;-86
2021/10/13 18:12:01;;;;;;;4.85;1.90;;;10.10;99.90;;;;;;12462578;28;20075;-86
2021/10/13 18:18:06;;;;;;;5.10;2.00;;;10.20;99.90;;;;;;12464778;28;20145;-86
2021/10/13 18:24:08;;;;;;;4.93;2.00;;;10.10;99.90;;;;;;12444689;28;20064;-85
2021/10/13 18:30:10;;;;;;;7.45;2.00;;;10.20;99.90;;;;;;12450317;28;20053;-86
2021/10/13 18:36:14;;;;;;;4.25;1.73;;;10.20;99.90;;;;;;12443328;28;20499;-86
2021/10/13 18:42:17;;;;;;;3.72;1.80;;;10.10;99.90;;;;;;12461689;28;20080;-85
2021/10/13 18:48:19;;;;;;;6.07;1.90;;;10.20;99.90;;;;;;12452232;28;20099;-86
2021/10/13 18:54:21;;;;;;;5.40;1.90;;;10.20;99.90;;;;;;12456897;28;20049;-86
2021/10/13 19:00:23;;;;;;;5.63;1.77;;;10.20;99.90;;;;;;12438187;28;20049;-86
2021/10/13 19:06:25;;;;;;;11.57;2.10;;;10.10;99.90;;;;;;12433411;28;20098;-88
2021/10/13 19:12:27;;;;;;;7.78;2.50;;;10.20;99.90;;;;;;12428149;28;20154;-85
2021/10/13 19:18:30;;;;;;;5.95;2.38;;;10.10;99.90;;;;;;12452604;28;20102;-85
2021/10/13 19:24:32;;;;;;;6.93;2.33;;;10.10;99.90;;;;;;12470960;28;20122;-86
2021/10/13 19:30:35;;;;;;;6.38;2.13;;;10.10;99.90;;;;;;12437456;28;20739;-87
2021/10/13 19:36:37;;;;;;;8.52;2.70;;;10.10;99.90;;;;;;12468292;28;20060;-86
2021/10/13 19:42:39;;;;;;;6.13;2.08;;;10.10;99.90;;;;;;12458680;28;20065;-87
2021/10/13 19:48:41;;;;;;;4.90;2.40;;;10.10;99.90;;;;;;12447519;28;20116;-87
2021/10/13 19:54:43;;;;;;;6.85;2.67;;;10.10;99.90;;;;;;12455652;28;20053;-86
2021/10/13 20:00:46;;;;;;;5.72;2.40;;;10.00;99.90;;;;;;12440450;28;20041;-85
2021/10/13 20:06:48;;;;;;;7.95;2.38;;;10.00;99.90;;;;;;12441083;28;20052;-86
2021/10/13 20:12:50;;;;;;;6.25;2.08;;;10.00;99.90;;;;;;12438058;28;20131;-85
2021/10/13 20:18:52;;;;;;;6.35;2.13;;;10.00;99.90;;;;;;12440549;28;20061;-85
2021/10/13 20:24:53;;;;;;;10.85;2.72;;;10.10;99.90;;;;;;12441650;28;20410;-85
2021/10/13 20:30:55;;;;;;;6.57;2.05;;;10.10;99.90;;;;;;12434564;28;20045;-85
2021/10/13 20:36:57;;;;;;;6.03;2.13;;;10.10;99.90;;;;;;12439611;28;20102;-85
2021/10/13 20:43:00;;;;;;;5.28;1.90;;;10.10;99.90;;;;;;12431273;28;20100;-87
2021/10/13 20:49:04;;;;;;;10.80;2.53;;;10.10;99.90;;;;;;12436623;28;20056;-86
2021/10/13 20:55:07;;;;;;;8.93;1.95;;;10.10;99.90;;;;;;12456487;28;20171;-86
2021/10/13 21:01:08;;;;;;;13.60;2.17;;;10.20;99.90;;;;;;12456482;28;20041;-86
2021/10/13 21:07:11;;;;;;;7.45;2.00;;;10.20;99.90;;;;;;12454243;28;20057;-85
2021/10/13 21:13:12;;;;;;;11.43;2.03;;;10.30;99.90;;;;;;12438112;28;20750;-85
2021/10/13 21:19:15;;;;;;;8.52;2.58;;;10.40;99.90;;;;;;12449548;28;20029;-86
2021/10/13 21:25:17;;;;;;;6.18;2.20;;;10.30;99.90;;;;;;12459392;28;20843;-85
2021/10/13 21:31:19;;;;;;;7.50;2.65;;;10.30;99.90;;;;;;12437605;28;20131;-85
2021/10/13 21:37:20;;;;;;;7.47;2.10;;;10.30;99.90;;;;;;12436368;28;20112;-86
2021/10/13 21:43:22;;;;;;;6.32;2.33;;;10.40;99.90;;;;;;12455110;28;20523;-85
2021/10/13 21:49:24;;;;;;;5.45;2.30;;;10.40;99.90;;;;;;12434156;28;20126;-85
2021/10/13 21:55:26;;;;;;;8.38;2.40;;;10.20;99.90;;;;;;12435076;28;20566;-85
2021/10/13 22:01:28;;;;;;;6.47;2.60;;;10.20;99.90;;;;;;12436278;28;20054;-84
2021/10/13 22:07:31;;;;;;;10.25;2.85;;;10.10;99.90;;;;;;12455727;28;20128;-87
2021/10/13 22:13:34;;;;;;;6.85;2.53;;;10.10;99.90;;;;;;12443856;28;20041;-87
2021/10/13 22:19:36;;;;;;;6.35;2.58;;;10.00;99.90;;;;;;12444346;28;20088;-84
2021/10/13 22:25:37;;;;;;;6.13;2.88;;;10.10;99.90;;;;;;12446724;28;20207;-84
2021/10/13 22:31:39;;;;;;;9.38;2.83;;;10.10;99.90;;;;;;12437197;28;20448;-84
2021/10/13 22:37:41;;;;;;;8.90;3.20;;;10.00;99.90;;;;;;12445564;28;20045;-85
2021/10/13 22:43:43;;;;;;;8.10;3.10;;;9.90;99.90;;;;;;12444979;28;20045;-86
2021/10/13 22:49:45;;;;;;;6.90;3.58;;;9.90;99.90;;;;;;12442508;28;20546;-84
2021/10/13 22:55:48;;;;;;;7.78;3.10;;;9.70;99.90;;;;;;12439396;28;20041;-84
2021/10/13 23:01:50;;;;;;;13.98;4.20;;;9.80;99.90;;;;;;12439625;28;20140;-85
2021/10/13 23:07:52;;;;;;;7.57;4.30;;;9.80;99.90;;;;;;12438578;28;20045;-85
2021/10/13 23:13:54;;;;;;;7.72;4.25;;;9.70;99.90;;;;;;12439596;28;20137;-84
2021/10/13 23:19:56;;;;;;;12.10;4.13;;;9.70;99.90;;;;;;12443354;28;20417;-85
2021/10/13 23:25:57;;;;;;;8.30;3.63;;;9.70;99.90;;;;;;12441355;28;20524;-85
2021/10/13 23:32:01;;;;;;;11.07;4.25;;;9.60;99.90;;;;;;12442339;28;20095;-84
2021/10/13 23:38:03;;;;;;;9.68;4.30;;;9.60;99.90;;;;;;12458009;28;20510;-85
2021/10/13 23:44:05;;;;;;;10.05;3.88;;;9.60;99.90;;;;;;12436252;28;20077;-85
2021/10/13 23:50:08;;;;;;;7.65;3.90;;;9.70;99.90;;;;;;12438832;28;20107;-86
2021/10/13 23:56:09;;;;;;;8.95;3.90;;;9.60;99.90;;;;;;12446688;28;20478;-86
